EST,Max TemperatureF,Mean TemperatureF,Min TemperatureF,Max Dew PointF,MeanDew PointF,Min DewpointF,Max Humidity, Mean Humidity, Min Humidity, Max Sea Level PressureIn, Mean Sea Level PressureIn, Min Sea Level PressureIn, Max VisibilityMiles, Mean VisibilityMiles, Min VisibilityMiles, Max Wind SpeedMPH, Mean Wind SpeedMPH, Max Gust SpeedMPH,PrecipitationIn, CloudCover, Events, WindDirDegrees
2012-11-1,48,44,41,40,38,37,89,80,66,29.62,29.54,29.46,10,10,9,12,7,18,0.06,8,Rain,253
2012-11-2,42,40,37,38,33,28,85,77,65,29.86,29.72,29.61,10,10,5,13,7,24,0.03,8,Rain,272
2012-11-3,43,38,35,32,29,25,82,69,58,30.06,29.95,29.84,10,10,9,16,9,24,0.00,8,Rain,298
2012-11-4,39,36,33,28,26,23,76,67,60,30.10,30.06,30.03,10,10,10,13,8,18,0.00,8,,306
2012-11-5,37,35,32,28,24,18,82,66,54,30.20,30.13,30.03,10,10,10,15,4,,0.00,8,,339
2012-11-6,39,31,21,21,20,17,85,65,45,30.22,30.16,30.08,10,10,10,7,2,,0.00,3,,162
2012-11-7,39,29,19,25,20,16,89,70,45,30.12,30.07,30.01,10,10,10,12,2,16,0.00,0,,20
2012-11-8,43,34,25,25,22,16,78,63,34,30.10,30.05,30.01,10,10,10,15,6,31,0.00,1,,348
2012-11-9,48,36,23,34,28,19,92,76,54,30.23,30.17,30.08,10,10,8,10,4,,0.00,4,,245
2012-11-10,51,43,35,41,37,32,93,79,66,30.31,30.28,30.23,10,8,5,7,2,,0.02,7,Rain,178
2012-11-11,72,54,37,41,37,34,93,61,30,30.38,30.32,30.27,10,9,6,10,1,,0.00,2,,217
2012-11-12,64,55,44,51,46,37,83,63,47,30.27,30.16,29.99,10,9,2,23,10,38,0.18,3,Rain,217
2012-11-13,43,39,35,38,30,20,93,75,54,30.53,30.36,30.21,10,9,4,14,6,17,0.12,8,Rain,284
2012-11-14,39,32,24,28,24,21,88,68,55,30.61,30.55,30.49,10,10,10,12,3,,0.00,5,,12
2012-11-15,45,33,21,28,23,19,96,80,49,30.49,30.41,30.34,10,10,9,4,0,,0.00,0,,70
2012-11-16,45,32,19,30,24,17,92,79,53,30.54,30.43,30.35,10,10,6,12,2,17,0.00,0,,353
2012-11-17,48,34,19,33,24,17,96,85,50,30.69,30.63,30.54,10,6,0,5,1,,0.00,2,Fog,247
2012-11-18,48,34,21,32,23,18,100,85,52,30.69,30.62,30.52,10,5,0,7,0,,0.00,1,Fog,97
2012-11-19,50,34,19,34,23,17,96,85,50,30.55,30.45,30.27,10,5,0,4,0,,0.00,1,Fog,113
2012-11-20,50,38,27,33,29,24,96,78,50,30.25,30.18,30.12,10,9,4,4,0,,0.00,0,,30
2012-11-21,54,40,24,32,27,21,92,75,37,30.27,30.23,30.17,10,9,6,7,1,,0.00,0,,260
2012-11-22,60,40,19,33,25,18,96,74,33,30.29,30.20,30.07,10,10,6,4,0,,0.00,0,,60
2012-11-23,55,40,24,41,30,20,92,70,45,30.05,29.83,29.70,10,10,9,20,4,31,0.00,4,,244
2012-11-24,37,34,30,27,23,15,86,67,46,29.92,29.82,29.75,10,7,2,21,13,37,0.01,7,Snow,279
2012-11-25,34,31,28,25,21,15,75,64,54,29.92,29.89,29.82,10,9,3,15,8,21,0.00,8,Snow,259
2012-11-26,39,34,30,26,22,20,75,59,46,30.24,30.10,29.90,10,10,10,13,5,20,0.00,7,,263
2012-11-27,37,30,23,30,25,17,88,76,50,30.30,30.26,30.22,10,7,1,7,1,,0.01,8,Snow,282
2012-11-28,37,28,18,26,21,14,88,73,52,30.27,30.24,30.18,10,10,7,15,5,18,0.00,6,Snow,245
2012-11-29,46,34,21,25,22,17,88,64,33,30.31,30.27,30.22,10,10,10,16,5,23,0.00,1,,249
2012-11-30,32,26,21,28,26,18,93,86,78,30.41,30.35,30.30,10,7,1,7,4,,0.00,7,Snow,78